createdAt,value
2022-12-31T00:02:11.391Z,65.70
2022-12-31T00:04:41.932Z,58.80
2022-12-31T00:07:11.889Z,56.00
2022-12-31T00:09:41.761Z,55.80
2022-12-31T00:12:10.453Z,60.00
2022-12-31T00:14:40.271Z,70.60
2022-12-31T00:17:10.758Z,66.50
2022-12-31T00:19:41.186Z,65.70
2022-12-31T00:22:11.430Z,65.40
2022-12-31T00:24:41.432Z,67.50
2022-12-31T00:27:11.210Z,63.20
2022-12-31T00:29:41.182Z,61.30
2022-12-31T00:32:11.699Z,52.30
2022-12-31T00:34:42.398Z,61.70
2022-12-31T00:37:12.573Z,62.40
2022-12-31T00:39:42.339Z,65.90
2022-12-31T00:42:11.994Z,56.70
2022-12-31T00:44:42.110Z,61.00
2022-12-31T00:47:12.744Z,54.60
2022-12-31T00:49:42.909Z,48.10
2022-12-31T00:52:14.273Z,50.50
2022-12-31T00:54:44.876Z,64.40
2022-12-31T00:57:15.489Z,61.20
2022-12-31T00:59:45.853Z,56.80
2022-12-31T01:02:16.748Z,62.80
2022-12-31T01:04:47.786Z,61.30
2022-12-31T01:07:18.079Z,54.70
2022-12-31T01:09:48.409Z,56.10
2022-12-31T01:12:19.034Z,57.50
2022-12-31T01:14:48.895Z,53.00
2022-12-31T01:17:19.461Z,48.00
2022-12-31T01:19:49.259Z,47.00
2022-12-31T01:22:19.657Z,46.40
2022-12-31T01:24:48.213Z,44.90
2022-12-31T01:27:19.083Z,49.30
2022-12-31T01:29:49.051Z,53.00
2022-12-31T01:32:18.378Z,51.20
2022-12-31T01:34:48.552Z,53.70
2022-12-31T01:37:18.186Z,57.10
2022-12-31T01:39:48.271Z,52.00
2022-12-31T01:42:16.972Z,60.30
2022-12-31T01:44:51.065Z,55.10
2022-12-31T01:47:35.074Z,56.90
2022-12-31T01:50:16.616Z,57.70
2022-12-31T01:52:54.948Z,52.90
2022-12-31T01:55:30.277Z,57.90
2022-12-31T01:58:13.272Z,48.80
2022-12-31T02:00:44.606Z,49.90
2022-12-31T02:03:14.070Z,45.30
2022-12-31T02:05:57.676Z,50.70
2022-12-31T02:08:27.463Z,49.70
2022-12-31T02:10:57.395Z,56.50
2022-12-31T02:13:27.367Z,53.50
2022-12-31T02:16:37.154Z,50.00
2022-12-31T02:19:38.793Z,61.40
2022-12-31T02:22:30.002Z,55.40
2022-12-31T02:25:20.854Z,58.10
2022-12-31T02:28:00.347Z,61.90
2022-12-31T02:30:33.155Z,56.90
2022-12-31T02:33:24.820Z,54.80
2022-12-31T02:36:03.617Z,56.80
2022-12-31T02:38:41.048Z,53.20
2022-12-31T02:41:39.056Z,51.90
2022-12-31T02:47:02.869Z,50.40
2022-12-31T02:49:52.993Z,54.40
2022-12-31T02:52:42.866Z,59.90
2022-12-31T02:55:27.799Z,52.20
2022-12-31T02:58:08.544Z,57.10
2022-12-31T03:01:10.320Z,49.30
2022-12-31T03:03:40.068Z,50.40
2022-12-31T03:06:13.936Z,49.70
2022-12-31T03:09:03.461Z,51.80
2022-12-31T03:11:53.121Z,51.90
2022-12-31T03:14:21.761Z,50.70
2022-12-31T03:16:52.144Z,49.70
2022-12-31T03:19:44.381Z,49.40
2022-12-31T03:22:29.484Z,43.40
2022-12-31T03:25:25.306Z,43.10
2022-12-31T03:27:57.039Z,47.60
2022-12-31T03:30:28.113Z,49.60
2022-12-31T03:32:59.280Z,48.60
2022-12-31T03:35:31.962Z,43.40
2022-12-31T03:38:03.303Z,39.20
2022-12-31T03:40:37.332Z,43.30
2022-12-31T03:43:08.611Z,40.80
2022-12-31T03:45:38.780Z,43.10
2022-12-31T03:48:10.313Z,39.80
2022-12-31T03:50:40.116Z,39.10
2022-12-31T03:53:10.138Z,40.80
2022-12-31T03:55:40.186Z,42.90
2022-12-31T03:58:10.160Z,40.20
2022-12-31T04:00:40.208Z,40.70
2022-12-31T04:03:10.820Z,42.60
2022-12-31T04:05:41.726Z,41.60
2022-12-31T04:08:10.689Z,38.40
2022-12-31T04:10:41.254Z,39.20
2022-12-31T04:13:11.097Z,41.30
2022-12-31T04:15:41.202Z,40.30
2022-12-31T04:18:11.239Z,42.90
2022-12-31T04:20:41.209Z,46.70
2022-12-31T04:23:11.550Z,43.30
2022-12-31T04:25:40.921Z,42.10
2022-12-31T04:28:12.732Z,42.00
2022-12-31T04:30:44.348Z,41.40
2022-12-31T04:33:14.338Z,40.90
2022-12-31T04:35:45.614Z,38.10
2022-12-31T04:38:15.594Z,40.30
2022-12-31T04:41:06.001Z,41.40
2022-12-31T04:43:35.776Z,36.80
2022-12-31T04:46:05.864Z,40.70
2022-12-31T04:48:35.912Z,35.90
2022-12-31T04:51:06.329Z,38.90
2022-12-31T04:53:36.162Z,34.90
2022-12-31T04:56:07.150Z,31.50
2022-12-31T04:58:37.331Z,36.10
2022-12-31T05:01:08.540Z,35.00
2022-12-31T05:03:38.883Z,34.50
2022-12-31T05:06:12.593Z,34.50
2022-12-31T05:08:41.346Z,34.60
2022-12-31T05:11:12.638Z,34.80
2022-12-31T05:13:42.686Z,36.00
2022-12-31T05:16:13.044Z,35.30
2022-12-31T05:18:42.151Z,37.80
2022-12-31T05:21:20.585Z,180.40
2022-12-31T05:23:50.713Z,69.50
2022-12-31T05:26:21.090Z,55.00
2022-12-31T05:28:49.578Z,64.50
2022-12-31T05:31:19.421Z,39.50
2022-12-31T05:33:50.887Z,40.60
2022-12-31T05:36:20.724Z,40.10
2022-12-31T05:38:49.357Z,42.90
2022-12-31T05:41:19.446Z,37.80
2022-12-31T05:43:50.681Z,38.60
2022-12-31T05:46:20.478Z,39.40
2022-12-31T05:48:50.266Z,44.20
2022-12-31T05:51:20.457Z,47.00
2022-12-31T05:53:50.405Z,48.00
2022-12-31T05:56:20.992Z,47.80
2022-12-31T05:58:50.751Z,43.20
2022-12-31T06:01:20.599Z,43.60
2022-12-31T06:03:50.095Z,45.60
2022-12-31T06:06:20.183Z,44.10
2022-12-31T06:08:53.303Z,44.30
2022-12-31T06:11:23.297Z,42.70
2022-12-31T06:13:53.149Z,38.70
2022-12-31T06:16:22.974Z,42.20
2022-12-31T06:18:53.120Z,41.30
2022-12-31T06:21:23.495Z,37.80
2022-12-31T06:23:53.298Z,42.80
2022-12-31T06:26:22.752Z,52.60
2022-12-31T06:28:52.575Z,49.10
2022-12-31T06:31:21.149Z,47.10
2022-12-31T06:33:50.824Z,48.60
2022-12-31T06:36:22.332Z,49.20
2022-12-31T06:38:52.238Z,49.20
2022-12-31T06:41:22.947Z,47.00
2022-12-31T06:43:52.866Z,44.40
2022-12-31T06:46:22.678Z,47.90
2022-12-31T06:48:52.978Z,48.20
2022-12-31T06:51:23.377Z,46.40
2022-12-31T06:53:53.366Z,50.80
2022-12-31T06:56:33.867Z,45.50
2022-12-31T06:59:05.532Z,57.70
2022-12-31T07:01:50.916Z,85.50
2022-12-31T07:04:54.615Z,70.30
2022-12-31T07:07:46.849Z,63.10
2022-12-31T07:10:33.244Z,70.70
2022-12-31T07:13:34.198Z,52.00
2022-12-31T07:16:09.342Z,50.60
2022-12-31T07:19:13.838Z,60.50
2022-12-31T07:21:44.049Z,53.30
2022-12-31T07:24:14.570Z,57.00
2022-12-31T07:27:02.342Z,69.60
2022-12-31T07:30:05.367Z,68.80
2022-12-31T07:32:55.724Z,87.40
2022-12-31T07:35:57.721Z,91.50
2022-12-31T07:38:53.699Z,76.90
2022-12-31T07:44:32.341Z,79.90
2022-12-31T07:47:05.421Z,82.00
2022-12-31T07:49:35.395Z,80.80
2022-12-31T07:52:05.535Z,81.10
2022-12-31T07:54:35.748Z,81.40
2022-12-31T07:57:05.726Z,78.00
2022-12-31T07:59:54.095Z,84.50
2022-12-31T08:03:00.702Z,77.60
2022-12-31T08:06:11.797Z,92.00
2022-12-31T08:09:13.947Z,59.30
2022-12-31T08:11:55.658Z,68.80
2022-12-31T08:14:26.525Z,73.20
2022-12-31T08:16:56.998Z,68.00
2022-12-31T08:19:31.945Z,62.40
2022-12-31T08:22:28.827Z,50.90
2022-12-31T08:25:23.562Z,49.80
2022-12-31T08:28:13.851Z,44.90
2022-12-31T08:30:53.092Z,42.40
2022-12-31T08:33:44.311Z,29.10
2022-12-31T08:36:44.791Z,40.80
2022-12-31T08:39:46.013Z,45.20
2022-12-31T08:42:37.857Z,37.90
2022-12-31T08:45:20.339Z,38.70
2022-12-31T08:48:02.871Z,36.00
2022-12-31T08:50:34.736Z,38.30
2022-12-31T08:53:05.173Z,36.10
2022-12-31T08:55:35.682Z,41.00
2022-12-31T08:58:16.220Z,37.20
2022-12-31T09:00:50.573Z,33.90
2022-12-31T09:03:36.789Z,34.00
2022-12-31T09:06:22.806Z,30.70
2022-12-31T09:09:16.506Z,32.20
2022-12-31T09:12:07.189Z,26.80
2022-12-31T09:14:56.347Z,22.10
2022-12-31T09:17:44.195Z,21.00
2022-12-31T09:20:42.262Z,21.30
2022-12-31T09:23:14.550Z,24.10
2022-12-31T09:26:01.668Z,21.80
2022-12-31T09:29:16.242Z,20.90
2022-12-31T09:32:09.271Z,21.40
2022-12-31T09:34:45.726Z,23.10
2022-12-31T09:37:30.205Z,21.90
2022-12-31T09:40:24.043Z,21.20
2022-12-31T09:43:18.853Z,20.20
2022-12-31T09:46:22.860Z,18.50
2022-12-31T09:49:39.484Z,18.80
2022-12-31T09:52:24.636Z,16.80
2022-12-31T09:55:13.561Z,19.90
2022-12-31T09:58:13.641Z,21.10
2022-12-31T10:00:58.543Z,19.30
2022-12-31T10:03:32.566Z,18.50
2022-12-31T10:06:17.624Z,16.80
2022-12-31T10:09:28.108Z,21.10
2022-12-31T10:12:28.196Z,19.90
2022-12-31T10:15:34.952Z,20.90
2022-12-31T10:18:38.511Z,22.00
2022-12-31T10:21:32.313Z,21.10
2022-12-31T10:24:24.071Z,21.10
2022-12-31T10:27:19.100Z,21.50
2022-12-31T10:30:23.846Z,21.20
2022-12-31T10:33:21.269Z,21.00
2022-12-31T10:36:16.872Z,35.80
2022-12-31T10:39:16.406Z,37.50
2022-12-31T10:42:17.151Z,38.70
2022-12-31T10:45:17.151Z,24.80
2022-12-31T10:47:50.350Z,25.80
2022-12-31T10:50:34.721Z,24.00
2022-12-31T10:53:48.093Z,28.40
2022-12-31T10:56:44.471Z,33.10
2022-12-31T10:59:36.596Z,33.40
2022-12-31T11:02:39.573Z,36.60
2022-12-31T11:05:46.673Z,42.70
2022-12-31T11:08:52.931Z,54.70
2022-12-31T11:11:43.881Z,54.80
2022-12-31T11:14:45.422Z,53.20
2022-12-31T11:17:20.431Z,52.00
2022-12-31T11:19:58.036Z,50.50
2022-12-31T11:22:51.673Z,53.60
2022-12-31T11:25:52.220Z,52.20
2022-12-31T11:28:29.873Z,53.30
2022-12-31T11:31:13.370Z,56.70
2022-12-31T11:34:04.996Z,56.30
2022-12-31T11:36:52.841Z,57.50
2022-12-31T11:39:31.645Z,56.90
2022-12-31T11:42:30.536Z,60.60
2022-12-31T11:45:50.529Z,60.20
2022-12-31T11:48:31.009Z,58.10
2022-12-31T11:51:26.394Z,60.70
2022-12-31T11:54:17.980Z,60.40
2022-12-31T11:57:02.752Z,60.00
2022-12-31T11:59:32.622Z,55.90
2022-12-31T12:02:24.939Z,53.50
2022-12-31T12:04:58.699Z,56.50
2022-12-31T12:07:30.421Z,56.20
2022-12-31T12:10:12.552Z,58.20
2022-12-31T12:12:43.701Z,54.50
2022-12-31T12:15:33.238Z,55.40
2022-12-31T12:18:36.568Z,56.40
2022-12-31T12:21:17.077Z,53.40
2022-12-31T12:24:01.278Z,58.80
2022-12-31T12:26:43.558Z,45.80
2022-12-31T12:29:21.328Z,26.50
2022-12-31T12:32:17.992Z,43.80
2022-12-31T12:34:50.096Z,22.70
2022-12-31T12:37:26.202Z,8.20
2022-12-31T12:40:01.370Z,4.80
2022-12-31T12:42:32.098Z,6.50
2022-12-31T12:45:19.219Z,6.50
2022-12-31T12:47:55.380Z,6.90
2022-12-31T12:50:37.366Z,6.50
2022-12-31T12:53:33.279Z,5.00
2022-12-31T12:56:12.795Z,8.10
2022-12-31T12:58:59.856Z,13.00
2022-12-31T13:02:15.249Z,7.80
2022-12-31T13:05:03.198Z,7.30
2022-12-31T13:07:58.701Z,7.60
2022-12-31T13:10:56.722Z,9.00
2022-12-31T13:13:39.318Z,10.20
2022-12-31T13:16:23.201Z,9.40
2022-12-31T13:19:12.511Z,7.90
2022-12-31T13:22:02.303Z,6.80
2022-12-31T13:24:50.479Z,5.40
2022-12-31T13:27:46.349Z,10.30
2022-12-31T13:30:44.812Z,7.60
2022-12-31T13:33:20.096Z,10.90
2022-12-31T13:35:59.401Z,8.90
2022-12-31T13:38:50.637Z,8.50
2022-12-31T13:41:42.837Z,6.10
2022-12-31T13:44:48.651Z,8.80
2022-12-31T13:47:31.054Z,7.20
2022-12-31T13:50:20.258Z,9.40
2022-12-31T13:53:07.958Z,7.10
2022-12-31T13:56:02.412Z,8.40
2022-12-31T13:58:58.034Z,7.20
2022-12-31T14:01:40.695Z,6.80
2022-12-31T14:04:14.056Z,10.30
2022-12-31T14:07:03.731Z,11.80
2022-12-31T14:09:35.650Z,8.80
2022-12-31T14:12:46.561Z,8.50
2022-12-31T14:15:32.572Z,56.50
2022-12-31T14:18:34.013Z,60.50
2022-12-31T14:21:27.465Z,65.50
2022-12-31T14:24:23.342Z,68.20
2022-12-31T14:26:59.932Z,66.60
2022-12-31T14:29:45.319Z,67.10
2022-12-31T14:33:02.967Z,62.40
2022-12-31T14:35:51.575Z,63.40
2022-12-31T14:38:29.692Z,63.20
2022-12-31T14:41:43.418Z,64.30
2022-12-31T14:44:41.503Z,67.00
2022-12-31T14:47:34.177Z,66.10
2022-12-31T14:50:11.325Z,66.10
2022-12-31T14:52:51.357Z,67.00
2022-12-31T14:55:24.581Z,64.30
2022-12-31T14:58:26.511Z,63.90
2022-12-31T15:01:03.733Z,59.90
2022-12-31T15:06:24.794Z,64.00
2022-12-31T15:09:11.917Z,62.50
2022-12-31T15:12:22.940Z,65.30
2022-12-31T15:15:01.703Z,60.40
2022-12-31T15:17:37.185Z,65.20
2022-12-31T15:20:37.510Z,65.40
2022-12-31T15:23:22.582Z,65.80
2022-12-31T15:26:00.593Z,63.10
2022-12-31T15:31:20.639Z,64.60
2022-12-31T15:34:02.865Z,65.10
2022-12-31T15:36:36.038Z,61.00
2022-12-31T15:39:12.100Z,63.90
2022-12-31T15:42:18.855Z,64.70
2022-12-31T15:44:44.325Z,65.60
2022-12-31T15:47:40.879Z,64.20
2022-12-31T15:50:20.914Z,64.00
2022-12-31T15:52:56.950Z,66.40
2022-12-31T15:55:50.556Z,63.00
2022-12-31T15:58:23.482Z,67.20
2022-12-31T16:01:01.927Z,64.70
2022-12-31T16:03:32.551Z,65.60
2022-12-31T16:06:05.086Z,67.10
2022-12-31T16:08:36.521Z,66.30
2022-12-31T16:11:09.167Z,66.10
2022-12-31T16:13:47.762Z,65.80
2022-12-31T16:16:29.372Z,63.20
2022-12-31T16:19:01.979Z,65.20
2022-12-31T16:21:38.995Z,65.10
2022-12-31T16:24:32.436Z,65.10
2022-12-31T16:27:07.176Z,63.40
2022-12-31T16:29:42.149Z,62.20
2022-12-31T16:32:16.347Z,63.40
2022-12-31T16:34:47.428Z,61.20
2022-12-31T16:37:21.141Z,64.30
2022-12-31T16:40:01.418Z,62.30
2022-12-31T16:42:31.639Z,63.50
2022-12-31T16:45:24.920Z,59.20
2022-12-31T16:47:55.132Z,62.90
2022-12-31T16:50:25.580Z,60.80
2022-12-31T16:53:08.027Z,62.60
2022-12-31T16:55:41.697Z,60.30
2022-12-31T16:58:23.158Z,57.30
2022-12-31T17:00:53.810Z,59.50
2022-12-31T17:03:25.954Z,62.20
2022-12-31T17:06:17.463Z,64.20
2022-12-31T17:08:57.269Z,62.00
2022-12-31T17:11:35.492Z,62.40
2022-12-31T17:14:14.867Z,65.70
2022-12-31T17:17:07.225Z,66.30
2022-12-31T17:19:40.356Z,61.90
2022-12-31T17:22:17.459Z,58.30
2022-12-31T17:24:49.271Z,59.20
2022-12-31T17:27:20.171Z,63.10
2022-12-31T17:29:50.415Z,59.80
2022-12-31T17:32:37.601Z,62.70
2022-12-31T17:35:35.464Z,62.90
2022-12-31T17:41:05.863Z,61.40
2022-12-31T17:43:39.192Z,65.60
2022-12-31T17:46:17.013Z,67.70
2022-12-31T17:48:53.649Z,65.40
2022-12-31T17:51:24.385Z,59.80
2022-12-31T17:53:54.918Z,57.30
2022-12-31T17:56:24.984Z,57.70
2022-12-31T17:58:57.227Z,55.10
2022-12-31T18:01:27.509Z,63.20
2022-12-31T18:03:57.779Z,64.50
2022-12-31T18:06:27.902Z,62.30
2022-12-31T18:08:57.744Z,61.00
2022-12-31T18:11:28.050Z,63.10
2022-12-31T18:13:58.069Z,61.80
2022-12-31T18:16:28.229Z,60.10
2022-12-31T18:19:00.636Z,58.00
2022-12-31T18:21:33.428Z,58.10
2022-12-31T18:26:35.026Z,58.30
2022-12-31T18:29:18.286Z,59.10
2022-12-31T18:31:49.363Z,57.70
2022-12-31T18:34:19.645Z,58.20
2022-12-31T18:36:49.435Z,64.20
2022-12-31T18:39:18.039Z,60.70
2022-12-31T18:41:52.471Z,63.00
2022-12-31T18:44:23.427Z,63.50
2022-12-31T18:46:53.847Z,62.00
2022-12-31T18:49:23.539Z,60.00
2022-12-31T18:51:54.531Z,62.60
2022-12-31T18:54:24.878Z,67.00
2022-12-31T18:56:57.189Z,67.80
2022-12-31T18:59:26.740Z,69.70
2022-12-31T19:01:57.075Z,74.50
2022-12-31T19:04:28.429Z,72.20
2022-12-31T19:06:59.029Z,71.70
2022-12-31T19:09:45.251Z,68.70
2022-12-31T19:12:17.296Z,76.60
2022-12-31T19:14:47.153Z,93.60
2022-12-31T19:17:15.802Z,83.70
2022-12-31T19:19:45.690Z,75.50
2022-12-31T19:22:18.334Z,72.90
2022-12-31T19:24:48.187Z,76.40
2022-12-31T19:27:17.849Z,77.10
2022-12-31T19:29:46.874Z,76.60
2022-12-31T19:32:16.686Z,86.60
2022-12-31T19:34:46.519Z,83.60
2022-12-31T19:37:16.543Z,78.30
2022-12-31T19:39:45.922Z,81.10
2022-12-31T19:42:16.512Z,91.10
2022-12-31T19:44:46.336Z,94.00
2022-12-31T19:47:16.114Z,81.20
2022-12-31T19:49:45.919Z,80.30
2022-12-31T19:52:15.532Z,84.60
2022-12-31T19:54:45.330Z,88.40
2022-12-31T19:57:15.424Z,83.90
2022-12-31T19:59:44.651Z,90.20
2022-12-31T20:02:14.539Z,93.30
2022-12-31T20:04:44.628Z,90.40
2022-12-31T20:07:14.416Z,88.40
2022-12-31T20:09:44.159Z,91.40
2022-12-31T20:12:13.949Z,93.00
2022-12-31T20:14:42.633Z,100.10
2022-12-31T20:17:12.210Z,83.20
2022-12-31T20:19:42.125Z,86.50
2022-12-31T20:22:10.824Z,90.90
2022-12-31T20:24:40.828Z,95.50
2022-12-31T20:27:16.533Z,84.60
2022-12-31T20:29:47.396Z,90.30
2022-12-31T20:32:16.145Z,101.10
2022-12-31T20:34:45.878Z,94.70
2022-12-31T20:37:15.095Z,83.50
2022-12-31T20:39:44.681Z,79.90
2022-12-31T20:42:14.466Z,78.60
2022-12-31T20:44:44.267Z,69.20
2022-12-31T20:47:14.227Z,63.90
2022-12-31T20:50:10.373Z,74.90
2022-12-31T20:52:34.390Z,81.20
2022-12-31T20:55:04.677Z,81.70
2022-12-31T20:57:34.723Z,85.70
2022-12-31T21:00:05.314Z,87.30
2022-12-31T21:02:42.257Z,88.50
2022-12-31T21:05:13.761Z,86.10
2022-12-31T21:07:43.395Z,76.80
2022-12-31T21:10:13.272Z,73.20
2022-12-31T21:12:50.022Z,79.70
2022-12-31T21:17:52.131Z,75.20
2022-12-31T21:20:21.971Z,82.90
2022-12-31T21:22:51.930Z,86.10
2022-12-31T21:25:21.759Z,87.40
2022-12-31T21:27:51.845Z,88.20
2022-12-31T21:30:20.704Z,93.10
2022-12-31T21:32:51.530Z,96.40
2022-12-31T21:38:13.735Z,93.50
2022-12-31T21:40:45.474Z,93.60
2022-12-31T21:43:16.309Z,92.80
2022-12-31T21:45:48.502Z,91.70
2022-12-31T21:48:21.756Z,84.30
2022-12-31T21:50:59.390Z,80.90
2022-12-31T21:53:36.199Z,78.50
2022-12-31T21:56:11.917Z,80.90
2022-12-31T21:58:45.565Z,90.30
2022-12-31T22:01:41.193Z,97.40
2022-12-31T22:04:35.186Z,101.90
2022-12-31T22:07:01.152Z,73.80
2022-12-31T22:09:31.617Z,106.10
2022-12-31T22:12:01.821Z,146.30
2022-12-31T22:14:31.517Z,139.60
2022-12-31T22:17:01.568Z,96.00
2022-12-31T22:19:33.711Z,93.70
2022-12-31T22:22:13.890Z,89.50
2022-12-31T22:24:42.608Z,69.60
2022-12-31T22:27:29.217Z,78.50
2022-12-31T22:30:01.507Z,89.40
2022-12-31T22:32:31.655Z,92.30
2022-12-31T22:35:01.846Z,76.00
2022-12-31T22:37:56.850Z,74.40
2022-12-31T22:40:22.913Z,75.40
2022-12-31T22:42:51.511Z,74.40
2022-12-31T22:45:23.019Z,76.60
2022-12-31T22:47:53.555Z,82.80
2022-12-31T22:50:23.580Z,100.40
2022-12-31T22:52:53.754Z,99.60
2022-12-31T22:55:22.387Z,99.00
2022-12-31T22:57:54.216Z,88.40
2022-12-31T23:00:40.329Z,88.20
2022-12-31T23:03:10.302Z,84.00
2022-12-31T23:05:40.136Z,77.00
2022-12-31T23:08:20.676Z,79.40
2022-12-31T23:11:00.864Z,78.00
2022-12-31T23:13:52.458Z,72.70
2022-12-31T23:16:43.206Z,68.60
2022-12-31T23:19:32.664Z,71.10
2022-12-31T23:22:22.285Z,68.20
2022-12-31T23:24:52.525Z,72.00
2022-12-31T23:27:22.584Z,71.00
2022-12-31T23:29:52.364Z,72.30
2022-12-31T23:32:22.264Z,72.60
2022-12-31T23:34:53.839Z,92.50
2022-12-31T23:37:23.818Z,82.50
2022-12-31T23:39:53.608Z,85.40
2022-12-31T23:42:22.886Z,90.60
2022-12-31T23:44:53.997Z,82.00
2022-12-31T23:47:23.852Z,105.20
2022-12-31T23:49:52.740Z,111.60
2022-12-31T23:52:21.422Z,121.10
2022-12-31T23:54:51.342Z,132.40
2022-12-31T23:57:22.764Z,116.40
2022-12-31T23:59:51.777Z,149.30
